sensor_id;sensor_type;location;lat;lon;timestamp;pressure;altitude;pressure_sealevel;temperature;humidity
72896;BME280;61036;53.224;6.554;2022-07-24T00:01:22;101950.59;;;15.62;96.25
72896;BME280;61036;53.224;6.554;2022-07-24T00:03:47;101945.25;;;15.60;96.58
72896;BME280;61036;53.224;6.554;2022-07-24T00:06:12;101947.38;;;15.57;96.70
72896;BME280;61036;53.224;6.554;2022-07-24T00:08:38;101943.16;;;15.52;97.24
72896;BME280;61036;53.224;6.554;2022-07-24T00:11:05;101944.03;;;15.53;97.25
72896;BME280;61036;53.224;6.554;2022-07-24T00:13:33;101942.03;;;15.55;97.36
72896;BME280;61036;53.224;6.554;2022-07-24T00:15:59;101942.44;;;15.62;97.29
72896;BME280;61036;53.224;6.554;2022-07-24T00:18:25;101940.81;;;15.59;96.57
72896;BME280;61036;53.224;6.554;2022-07-24T00:20:50;101938.84;;;15.50;96.88
72896;BME280;61036;53.224;6.554;2022-07-24T00:23:18;101926.34;;;15.47;97.17
72896;BME280;61036;53.224;6.554;2022-07-24T00:25:44;101937.84;;;15.51;97.69
72896;BME280;61036;53.224;6.554;2022-07-24T00:28:11;101938.47;;;15.54;97.57
72896;BME280;61036;53.224;6.554;2022-07-24T00:30:36;101937.72;;;15.52;97.89
72896;BME280;61036;53.224;6.554;2022-07-24T00:33:03;101938.69;;;15.51;97.76
72896;BME280;61036;53.224;6.554;2022-07-24T00:35:28;101933.25;;;15.51;96.98
72896;BME280;61036;53.224;6.554;2022-07-24T00:37:55;101934.78;;;15.55;97.48
72896;BME280;61036;53.224;6.554;2022-07-24T00:40:20;101934.63;;;15.57;96.25
72896;BME280;61036;53.224;6.554;2022-07-24T00:42:46;101928.56;;;15.53;96.96
72896;BME280;61036;53.224;6.554;2022-07-24T00:45:12;101919.31;;;15.56;96.89
72896;BME280;61036;53.224;6.554;2022-07-24T00:47:38;101925.47;;;15.58;96.02
72896;BME280;61036;53.224;6.554;2022-07-24T00:50:05;101923.41;;;15.62;96.46
72896;BME280;61036;53.224;6.554;2022-07-24T00:52:31;101919.66;;;15.51;96.76
72896;BME280;61036;53.224;6.554;2022-07-24T00:54:57;101922.91;;;15.57;97.39
72896;BME280;61036;53.224;6.554;2022-07-24T00:57:23;101921.78;;;15.59;96.18
72896;BME280;61036;53.224;6.554;2022-07-24T00:59:48;101916.59;;;15.56;96.13
72896;BME280;61036;53.224;6.554;2022-07-24T01:02:16;101925.00;;;15.64;95.85
72896;BME280;61036;53.224;6.554;2022-07-24T01:04:42;101914.50;;;15.60;96.15
72896;BME280;61036;53.224;6.554;2022-07-24T01:07:09;101923.00;;;15.55;96.28
72896;BME280;61036;53.224;6.554;2022-07-24T01:09:34;101914.22;;;15.51;96.54
72896;BME280;61036;53.224;6.554;2022-07-24T01:12:03;101916.94;;;15.51;96.19
72896;BME280;61036;53.224;6.554;2022-07-24T01:14:33;101915.50;;;15.59;96.96
72896;BME280;61036;53.224;6.554;2022-07-24T01:16:59;101918.47;;;15.55;96.67
72896;BME280;61036;53.224;6.554;2022-07-24T01:19:28;101911.50;;;15.51;96.47
72896;BME280;61036;53.224;6.554;2022-07-24T01:21:54;101909.41;;;15.55;97.12
72896;BME280;61036;53.224;6.554;2022-07-24T01:24:20;101909.91;;;15.60;95.84
72896;BME280;61036;53.224;6.554;2022-07-24T01:26:46;101901.63;;;15.50;96.29
72896;BME280;61036;53.224;6.554;2022-07-24T01:32:32;101904.34;;;15.50;96.09
72896;BME280;61036;53.224;6.554;2022-07-24T01:34:57;101905.59;;;15.46;96.21
72896;BME280;61036;53.224;6.554;2022-07-24T01:37:23;101889.16;;;15.48;96.26
72896;BME280;61036;53.224;6.554;2022-07-24T01:39:49;101887.91;;;15.52;96.47
72896;BME280;61036;53.224;6.554;2022-07-24T01:42:15;101894.34;;;15.51;96.26
72896;BME280;61036;53.224;6.554;2022-07-24T01:44:41;101886.44;;;15.48;96.32
72896;BME280;61036;53.224;6.554;2022-07-24T01:47:07;101884.69;;;15.58;95.83
72896;BME280;61036;53.224;6.554;2022-07-24T01:49:33;101886.56;;;15.58;95.83
72896;BME280;61036;53.224;6.554;2022-07-24T01:51:58;101879.25;;;15.58;95.59
72896;BME280;61036;53.224;6.554;2022-07-24T01:54:24;101878.28;;;15.59;95.22
72896;BME280;61036;53.224;6.554;2022-07-24T01:56:49;101878.03;;;15.51;96.22
72896;BME280;61036;53.224;6.554;2022-07-24T01:59:17;101876.06;;;15.53;95.56
72896;BME280;61036;53.224;6.554;2022-07-24T02:01:43;101873.09;;;15.56;95.43
72896;BME280;61036;53.224;6.554;2022-07-24T02:04:11;101874.19;;;15.53;95.53
72896;BME280;61036;53.224;6.554;2022-07-24T02:06:38;101875.91;;;15.54;95.82
72896;BME280;61036;53.224;6.554;2022-07-24T02:09:03;101873.34;;;15.53;96.03
72896;BME280;61036;53.224;6.554;2022-07-24T02:11:30;101876.31;;;15.50;96.20
72896;BME280;61036;53.224;6.554;2022-07-24T02:13:56;101875.91;;;15.54;95.53
72896;BME280;61036;53.224;6.554;2022-07-24T02:16:23;101873.09;;;15.56;95.97
72896;BME280;61036;53.224;6.554;2022-07-24T02:18:50;101873.09;;;15.56;95.64
72896;BME280;61036;53.224;6.554;2022-07-24T02:21:16;101873.22;;;15.54;95.28
72896;BME280;61036;53.224;6.554;2022-07-24T02:23:41;101875.06;;;15.54;95.54
72896;BME280;61036;53.224;6.554;2022-07-24T02:26:09;101876.69;;;15.57;95.12
72896;BME280;61036;53.224;6.554;2022-07-24T02:28:34;101874.72;;;15.59;95.40
72896;BME280;61036;53.224;6.554;2022-07-24T02:31:00;101870.75;;;15.63;95.24
72896;BME280;61036;53.224;6.554;2022-07-24T02:33:26;101874.31;;;15.63;95.26
72896;BME280;61036;53.224;6.554;2022-07-24T02:35:52;101871.75;;;15.62;95.22
72896;BME280;61036;53.224;6.554;2022-07-24T02:38:18;101866.56;;;15.59;95.60
72896;BME280;61036;53.224;6.554;2022-07-24T02:40:43;101867.41;;;15.59;95.15
72896;BME280;61036;53.224;6.554;2022-07-24T02:43:09;101864.56;;;15.61;95.34
72896;BME280;61036;53.224;6.554;2022-07-24T02:45:34;101865.41;;;15.61;94.87
72896;BME280;61036;53.224;6.554;2022-07-24T02:48:00;101860.28;;;15.69;94.81
72896;BME280;61036;53.224;6.554;2022-07-24T02:50:30;101859.41;;;15.69;95.02
72896;BME280;61036;53.224;6.554;2022-07-24T02:52:56;101857.31;;;15.72;94.60
72896;BME280;61036;53.224;6.554;2022-07-24T02:55:22;101860.28;;;15.69;95.02
72896;BME280;61036;53.224;6.554;2022-07-24T02:57:48;101862.34;;;15.66;95.18
72896;BME280;61036;53.224;6.554;2022-07-24T03:00:15;101855.03;;;15.66;95.02
72896;BME280;61036;53.224;6.554;2022-07-24T03:02:42;101847.69;;;15.68;94.72
72896;BME280;61036;53.224;6.554;2022-07-24T03:05:08;101848.44;;;15.70;94.25
72896;BME280;61036;53.224;6.554;2022-07-24T03:07:34;101849.28;;;15.71;94.42
72896;BME280;61036;53.224;6.554;2022-07-24T03:10:03;101844.47;;;15.74;94.41
72896;BME280;61036;53.224;6.554;2022-07-24T03:12:29;101836.66;;;15.70;94.34
72896;BME280;61036;53.224;6.554;2022-07-24T03:14:55;101832.97;;;15.71;94.36
72896;BME280;61036;53.224;6.554;2022-07-24T03:17:20;101836.66;;;15.70;94.27
72896;BME280;61036;53.224;6.554;2022-07-24T03:19:45;101835.53;;;15.72;94.09
72896;BME280;61036;53.224;6.554;2022-07-24T03:22:13;101833.94;;;15.70;94.03
72896;BME280;61036;53.224;6.554;2022-07-24T03:24:39;101832.22;;;15.69;94.28
72896;BME280;61036;53.224;6.554;2022-07-24T03:27:05;101824.16;;;15.67;94.79
72896;BME280;61036;53.224;6.554;2022-07-24T03:29:31;101825.78;;;15.70;94.40
72896;BME280;61036;53.224;6.554;2022-07-24T03:31:57;101824.91;;;15.69;95.05
72896;BME280;61036;53.224;6.554;2022-07-24T03:34:22;101828.13;;;15.74;94.39
72896;BME280;61036;53.224;6.554;2022-07-24T03:36:48;101832.72;;;15.74;94.47
72896;BME280;61036;53.224;6.554;2022-07-24T03:39:14;101828.50;;;15.81;94.47
72896;BME280;61036;53.224;6.554;2022-07-24T03:41:39;101818.97;;;15.75;94.26
72896;BME280;61036;53.224;6.554;2022-07-24T03:44:05;101823.19;;;15.80;93.85
72896;BME280;61036;53.224;6.554;2022-07-24T03:46:30;101826.44;;;15.73;94.22
72896;BME280;61036;53.224;6.554;2022-07-24T03:48:56;101818.25;;;15.73;94.73
72896;BME280;61036;53.224;6.554;2022-07-24T03:51:21;101818.13;;;15.75;94.69
72896;BME280;61036;53.224;6.554;2022-07-24T03:53:48;101803.28;;;15.79;94.28
72896;BME280;61036;53.224;6.554;2022-07-24T03:56:15;101806.75;;;15.81;94.75
72896;BME280;61036;53.224;6.554;2022-07-24T03:58:41;101810.56;;;15.78;94.45
72896;BME280;61036;53.224;6.554;2022-07-24T04:01:07;101799.19;;;15.85;94.26
72896;BME280;61036;53.224;6.554;2022-07-24T04:03:33;101802.78;;;15.85;94.34
72896;BME280;61036;53.224;6.554;2022-07-24T04:06:03;101800.19;;;15.95;93.62
72896;BME280;61036;53.224;6.554;2022-07-24T04:08:29;101804.00;;;15.92;93.69
72896;BME280;61036;53.224;6.554;2022-07-24T04:10:57;101799.69;;;16.01;93.72
72896;BME280;61036;53.224;6.554;2022-07-24T04:13:24;101793.47;;;15.99;93.32
72896;BME280;61036;53.224;6.554;2022-07-24T04:15:49;101795.72;;;15.94;93.87
72896;BME280;61036;53.224;6.554;2022-07-24T04:18:15;101792.47;;;16.00;93.13
72896;BME280;61036;53.224;6.554;2022-07-24T04:20:41;101800.28;;;15.93;93.11
72896;BME280;61036;53.224;6.554;2022-07-24T04:23:07;101799.44;;;15.93;93.81
72896;BME280;61036;53.224;6.554;2022-07-24T04:25:32;101796.97;;;15.90;93.56
72896;BME280;61036;53.224;6.554;2022-07-24T04:28:00;101792.28;;;15.92;93.47
72896;BME280;61036;53.224;6.554;2022-07-24T04:34:21;101801.28;;;15.92;93.76
72896;BME280;61036;53.224;6.554;2022-07-24T04:36:47;101800.28;;;15.93;93.66
72896;BME280;61036;53.224;6.554;2022-07-24T04:39:12;101809.81;;;15.99;94.17
72896;BME280;61036;53.224;6.554;2022-07-24T04:41:38;101806.97;;;16.00;93.37
72896;BME280;61036;53.224;6.554;2022-07-24T04:44:06;101808.03;;;16.09;93.54
72896;BME280;61036;53.224;6.554;2022-07-24T04:46:32;101804.22;;;16.12;93.26
72896;BME280;61036;53.224;6.554;2022-07-24T04:48:58;101799.84;;;16.20;93.22
72896;BME280;61036;53.224;6.554;2022-07-24T04:51:23;101805.19;;;16.22;92.89
72896;BME280;61036;53.224;6.554;2022-07-24T04:53:49;101801.72;;;16.20;92.80
72896;BME280;61036;53.224;6.554;2022-07-24T04:56:21;101803.06;;;16.26;93.00
72896;BME280;61036;53.224;6.554;2022-07-24T04:58:47;101793.00;;;16.37;92.56
72896;BME280;61036;53.224;6.554;2022-07-24T05:01:13;101795.19;;;16.55;92.58
72896;BME280;61036;53.224;6.554;2022-07-24T05:03:39;101786.34;;;17.25;89.08
72896;BME280;61036;53.224;6.554;2022-07-24T05:06:06;101775.31;;;18.08;85.43
72896;BME280;61036;53.224;6.554;2022-07-24T05:08:32;101779.03;;;19.23;79.71
72896;BME280;61036;53.224;6.554;2022-07-24T05:10:58;101776.38;;;18.55;79.62
72896;BME280;61036;53.224;6.554;2022-07-24T05:13:23;101775.34;;;18.56;81.35
72896;BME280;61036;53.224;6.554;2022-07-24T05:15:49;101776.78;;;18.41;81.41
72896;BME280;61036;53.224;6.554;2022-07-24T05:18:16;101782.53;;;18.18;82.28
72896;BME280;61036;53.224;6.554;2022-07-24T05:20:42;101779.16;;;17.86;83.75
72896;BME280;61036;53.224;6.554;2022-07-24T05:23:08;101774.88;;;17.62;84.99
72896;BME280;61036;53.224;6.554;2022-07-24T05:25:34;101782.56;;;17.47;86.01
72896;BME280;61036;53.224;6.554;2022-07-24T05:28:00;101782.56;;;17.47;86.44
72896;BME280;61036;53.224;6.554;2022-07-24T05:30:28;101781.47;;;17.59;85.04
72896;BME280;61036;53.224;6.554;2022-07-24T05:32:54;101776.50;;;17.74;86.08
72896;BME280;61036;53.224;6.554;2022-07-24T05:35:28;101770.91;;;17.76;85.61
72896;BME280;61036;53.224;6.554;2022-07-24T05:37:55;101770.34;;;17.72;86.06
72896;BME280;61036;53.224;6.554;2022-07-24T05:40:20;101763.59;;;17.76;85.37
72896;BME280;61036;53.224;6.554;2022-07-24T05:42:47;101766.38;;;17.86;85.32
72896;BME280;61036;53.224;6.554;2022-07-24T05:45:12;101763.94;;;17.93;84.25
72896;BME280;61036;53.224;6.554;2022-07-24T05:47:43;101764.06;;;17.81;84.58
72896;BME280;61036;53.224;6.554;2022-07-24T05:50:10;101760.63;;;17.89;84.12
72896;BME280;61036;53.224;6.554;2022-07-24T05:52:37;101759.19;;;17.85;84.32
72896;BME280;61036;53.224;6.554;2022-07-24T05:55:04;101751.56;;;17.79;84.87
72896;BME280;61036;53.224;6.554;2022-07-24T05:57:30;101748.34;;;17.74;85.29
72896;BME280;61036;53.224;6.554;2022-07-24T05:59:56;101744.81;;;17.83;85.30
72896;BME280;61036;53.224;6.554;2022-07-24T06:02:21;101742.25;;;17.91;85.30
72896;BME280;61036;53.224;6.554;2022-07-24T06:04:47;101751.72;;;19.04;81.45
72896;BME280;61036;53.224;6.554;2022-07-24T06:07:13;101737.16;;;22.30;67.02
72896;BME280;61036;53.224;6.554;2022-07-24T06:09:39;101745.50;;;21.54;66.37
72896;BME280;61036;53.224;6.554;2022-07-24T06:12:05;101754.38;;;21.48;67.86
72896;BME280;61036;53.224;6.554;2022-07-24T06:14:31;101751.41;;;20.63;70.51
72896;BME280;61036;53.224;6.554;2022-07-24T06:17:01;101752.78;;;19.95;74.67
72896;BME280;61036;53.224;6.554;2022-07-24T06:19:26;101749.44;;;20.01;74.49
72896;BME280;61036;53.224;6.554;2022-07-24T06:21:52;101737.41;;;19.57;76.96
72896;BME280;61036;53.224;6.554;2022-07-24T06:24:18;101759.41;;;19.37;77.56
72896;BME280;61036;53.224;6.554;2022-07-24T06:26:44;101764.06;;;19.17;79.38
72896;BME280;61036;53.224;6.554;2022-07-24T06:29:10;101769.50;;;19.27;79.54
72896;BME280;61036;53.224;6.554;2022-07-24T06:42:17;101746.13;;;19.42;79.59
72896;BME280;61036;53.224;6.554;2022-07-24T06:44:42;101752.00;;;19.48;81.04
72896;BME280;61036;53.224;6.554;2022-07-24T06:47:08;101753.03;;;19.47;80.10
72896;BME280;61036;53.224;6.554;2022-07-24T06:49:34;101758.19;;;19.50;79.46
72896;BME280;61036;53.224;6.554;2022-07-24T06:52:00;101756.81;;;19.63;79.63
72896;BME280;61036;53.224;6.554;2022-07-24T06:54:26;101754.31;;;19.80;79.74
72896;BME280;61036;53.224;6.554;2022-07-24T06:56:52;101751.47;;;19.99;79.48
72896;BME280;61036;53.224;6.554;2022-07-24T06:59:18;101751.00;;;20.04;78.67
72896;BME280;61036;53.224;6.554;2022-07-24T07:01:44;101748.28;;;20.22;78.12
72896;BME280;61036;53.224;6.554;2022-07-24T07:04:09;101754.75;;;20.21;77.96
72896;BME280;61036;53.224;6.554;2022-07-24T07:06:35;101751.78;;;20.50;77.70
72896;BME280;61036;53.224;6.554;2022-07-24T07:09:00;101740.03;;;20.75;76.97
72896;BME280;61036;53.224;6.554;2022-07-24T07:11:26;101739.16;;;20.75;76.31
72896;BME280;61036;53.224;6.554;2022-07-24T07:13:52;101738.59;;;20.89;76.16
72896;BME280;61036;53.224;6.554;2022-07-24T07:16:22;101736.97;;;20.78;75.56
72896;BME280;61036;53.224;6.554;2022-07-24T07:18:47;101724.28;;;20.77;75.73
72896;BME280;61036;53.224;6.554;2022-07-24T07:21:13;101734.50;;;20.93;75.90
72896;BME280;61036;53.224;6.554;2022-07-24T07:23:38;101743.09;;;20.98;75.62
72896;BME280;61036;53.224;6.554;2022-07-24T07:26:06;101730.28;;;21.33;74.58
72896;BME280;61036;53.224;6.554;2022-07-24T07:28:32;101743.53;;;21.38;74.24
72896;BME280;61036;53.224;6.554;2022-07-24T07:31:02;101742.63;;;21.63;71.83
72896;BME280;61036;53.224;6.554;2022-07-24T07:33:28;101741.56;;;22.07;71.31
72896;BME280;61036;53.224;6.554;2022-07-24T07:35:54;101743.34;;;22.32;69.12
72896;BME280;61036;53.224;6.554;2022-07-24T07:38:19;101743.84;;;23.65;64.91
72896;BME280;61036;53.224;6.554;2022-07-24T07:40:44;101737.19;;;23.51;62.84
72896;BME280;61036;53.224;6.554;2022-07-24T07:43:11;101743.53;;;23.52;62.76
72896;BME280;61036;53.224;6.554;2022-07-24T07:45:36;101735.88;;;24.10;62.18
72896;BME280;61036;53.224;6.554;2022-07-24T07:48:02;101733.69;;;23.66;60.95
72896;BME280;61036;53.224;6.554;2022-07-24T07:50:30;101743.50;;;23.13;62.45
72896;BME280;61036;53.224;6.554;2022-07-24T07:52:56;101743.53;;;23.04;61.98
72896;BME280;61036;53.224;6.554;2022-07-24T07:55:22;101741.94;;;23.10;59.72
72896;BME280;61036;53.224;6.554;2022-07-24T07:57:48;101735.38;;;23.19;60.62
72896;BME280;61036;53.224;6.554;2022-07-24T08:00:15;101746.81;;;23.56;59.87
72896;BME280;61036;53.224;6.554;2022-07-24T08:02:44;101745.06;;;23.63;59.23
72896;BME280;61036;53.224;6.554;2022-07-24T08:05:10;101740.88;;;23.27;58.85
72896;BME280;61036;53.224;6.554;2022-07-24T08:07:36;101724.25;;;23.52;59.25
72896;BME280;61036;53.224;6.554;2022-07-24T08:10:04;101730.91;;;23.35;59.27
72896;BME280;61036;53.224;6.554;2022-07-24T08:12:30;101731.50;;;23.53;58.72
72896;BME280;61036;53.224;6.554;2022-07-24T08:14:56;101726.25;;;24.06;59.00
72896;BME280;61036;53.224;6.554;2022-07-24T08:17:21;101725.47;;;24.20;56.91
72896;BME280;61036;53.224;6.554;2022-07-24T08:19:47;101716.28;;;24.51;57.61
72896;BME280;61036;53.224;6.554;2022-07-24T08:22:13;101719.97;;;24.81;56.12
72896;BME280;61036;53.224;6.554;2022-07-24T08:24:39;101718.69;;;25.51;54.05
72896;BME280;61036;53.224;6.554;2022-07-24T08:27:06;101712.19;;;25.88;51.77
72896;BME280;61036;53.224;6.554;2022-07-24T08:29:32;101714.38;;;26.51;50.83
72896;BME280;61036;53.224;6.554;2022-07-24T08:31:58;101713.25;;;29.19;42.62
72896;BME280;61036;53.224;6.554;2022-07-24T08:34:23;101728.94;;;27.16;46.50
72896;BME280;61036;53.224;6.554;2022-07-24T08:36:51;101720.03;;;25.85;49.01
72896;BME280;61036;53.224;6.554;2022-07-24T08:39:16;101722.91;;;25.17;51.04
72896;BME280;61036;53.224;6.554;2022-07-24T08:41:43;101712.59;;;25.11;50.50
72896;BME280;61036;53.224;6.554;2022-07-24T08:44:09;101726.06;;;24.30;53.20
72896;BME280;61036;53.224;6.554;2022-07-24T08:46:40;101720.13;;;24.18;55.93
72896;BME280;61036;53.224;6.554;2022-07-24T08:49:08;101716.97;;;24.53;52.74
72896;BME280;61036;53.224;6.554;2022-07-24T08:51:37;101714.13;;;25.88;49.53
72896;BME280;61036;53.224;6.554;2022-07-24T08:54:04;101707.59;;;30.35;39.95
72896;BME280;61036;53.224;6.554;2022-07-24T08:56:30;101709.63;;;27.01;44.78
72896;BME280;61036;53.224;6.554;2022-07-24T08:58:58;101716.16;;;25.49;50.47
72896;BME280;61036;53.224;6.554;2022-07-24T09:01:24;101708.88;;;24.89;51.88
72896;BME280;61036;53.224;6.554;2022-07-24T09:03:51;101715.47;;;25.47;51.17
72896;BME280;61036;53.224;6.554;2022-07-24T09:06:17;101703.50;;;27.88;44.44
72896;BME280;61036;53.224;6.554;2022-07-24T09:08:57;101706.97;;;28.03;42.83
72896;BME280;61036;53.224;6.554;2022-07-24T09:11:24;101713.16;;;27.16;44.34
72896;BME280;61036;53.224;6.554;2022-07-24T09:13:53;101711.28;;;25.51;49.27
72896;BME280;61036;53.224;6.554;2022-07-24T09:16:37;101721.81;;;25.77;49.64
72896;BME280;61036;53.224;6.554;2022-07-24T09:19:05;101717.31;;;29.16;41.86
72896;BME280;61036;53.224;6.554;2022-07-24T09:21:33;101726.53;;;30.76;37.76
72896;BME280;61036;53.224;6.554;2022-07-24T09:24:20;101720.84;;;29.50;39.05
72896;BME280;61036;53.224;6.554;2022-07-24T09:26:56;101720.78;;;30.78;37.51
72896;BME280;61036;53.224;6.554;2022-07-24T09:29:23;101729.25;;;31.08;37.33
72896;BME280;61036;53.224;6.554;2022-07-24T09:31:54;101717.97;;;29.76;39.06
72896;BME280;61036;53.224;6.554;2022-07-24T09:34:21;101711.59;;;31.88;34.86
72896;BME280;61036;53.224;6.554;2022-07-24T09:36:58;101703.47;;;32.47;35.38
72896;BME280;61036;53.224;6.554;2022-07-24T09:39:25;101705.41;;;31.12;36.12
72896;BME280;61036;53.224;6.554;2022-07-24T09:41:52;101716.84;;;29.91;38.03
72896;BME280;61036;53.224;6.554;2022-07-24T09:44:18;101713.81;;;32.70;33.21
72896;BME280;61036;53.224;6.554;2022-07-24T09:46:48;101717.59;;;33.86;31.70
72896;BME280;61036;53.224;6.554;2022-07-24T09:49:20;101705.81;;;34.13;31.01
72896;BME280;61036;53.224;6.554;2022-07-24T09:54:52;101705.25;;;31.26;35.70
72896;BME280;61036;53.224;6.554;2022-07-24T09:59:54;101712.38;;;31.77;35.26
72896;BME280;61036;53.224;6.554;2022-07-24T10:02:24;101702.19;;;30.65;38.31
72896;BME280;61036;53.224;6.554;2022-07-24T10:04:50;101700.28;;;29.51;38.89
72896;BME280;61036;53.224;6.554;2022-07-24T10:07:18;101693.19;;;28.77;39.74
72896;BME280;61036;53.224;6.554;2022-07-24T10:09:54;101706.41;;;28.81;40.61
72896;BME280;61036;53.224;6.554;2022-07-24T10:12:23;101697.84;;;28.36;41.18
72896;BME280;61036;53.224;6.554;2022-07-24T10:14:52;101695.25;;;29.34;40.72
72896;BME280;61036;53.224;6.554;2022-07-24T10:17:18;101701.06;;;29.00;40.36
72896;BME280;61036;53.224;6.554;2022-07-24T10:19:47;101691.72;;;27.73;42.98
72896;BME280;61036;53.224;6.554;2022-07-24T10:22:18;101702.47;;;27.41;43.41
72896;BME280;61036;53.224;6.554;2022-07-24T10:27:31;101698.66;;;26.58;45.72
72896;BME280;61036;53.224;6.554;2022-07-24T10:29:59;101704.66;;;26.89;46.66
72896;BME280;61036;53.224;6.554;2022-07-24T10:32:30;101698.53;;;26.94;46.07
72896;BME280;61036;53.224;6.554;2022-07-24T10:35:13;101699.59;;;26.93;45.50
72896;BME280;61036;53.224;6.554;2022-07-24T10:40:36;101702.25;;;26.80;46.57
72896;BME280;61036;53.224;6.554;2022-07-24T10:45:39;101706.72;;;27.09;44.27
72896;BME280;61036;53.224;6.554;2022-07-24T10:56:15;101693.81;;;27.71;42.32
72896;BME280;61036;53.224;6.554;2022-07-24T10:59:06;101701.34;;;27.29;43.69
72896;BME280;61036;53.224;6.554;2022-07-24T11:01:39;101698.72;;;27.21;44.01
72896;BME280;61036;53.224;6.554;2022-07-24T11:09:23;101707.63;;;27.16;44.34
72896;BME280;61036;53.224;6.554;2022-07-24T11:16:52;101692.03;;;27.08;45.18
72896;BME280;61036;53.224;6.554;2022-07-24T11:21:45;101687.91;;;27.26;44.59
72896;BME280;61036;53.224;6.554;2022-07-24T11:26:48;101693.06;;;27.07;45.54
72896;BME280;61036;53.224;6.554;2022-07-24T11:29:27;101698.22;;;27.45;44.00
72896;BME280;61036;53.224;6.554;2022-07-24T11:31:55;101681.97;;;27.84;42.15
72896;BME280;61036;53.224;6.554;2022-07-24T11:34:22;101685.00;;;28.09;42.97
72896;BME280;61036;53.224;6.554;2022-07-24T11:36:50;101693.09;;;28.03;41.37
72896;BME280;61036;53.224;6.554;2022-07-24T11:39:20;101681.75;;;27.78;41.00
72896;BME280;61036;53.224;6.554;2022-07-24T11:41:59;101681.34;;;27.88;41.24
72896;BME280;61036;53.224;6.554;2022-07-24T11:44:27;101671.50;;;27.79;41.11
72896;BME280;61036;53.224;6.554;2022-07-24T11:47:04;101678.00;;;28.26;40.78
72896;BME280;61036;53.224;6.554;2022-07-24T11:49:30;101675.69;;;28.43;42.10
72896;BME280;61036;53.224;6.554;2022-07-24T11:51:55;101670.78;;;28.45;40.63
72896;BME280;61036;53.224;6.554;2022-07-24T11:54:26;101666.94;;;28.66;40.67
72896;BME280;61036;53.224;6.554;2022-07-24T11:56:53;101668.88;;;28.65;40.63
72896;BME280;61036;53.224;6.554;2022-07-24T11:59:30;101669.50;;;28.61;39.32
72896;BME280;61036;53.224;6.554;2022-07-24T12:02:06;101659.25;;;28.35;39.19
72896;BME280;61036;53.224;6.554;2022-07-24T12:04:33;101667.09;;;28.04;40.47
72896;BME280;61036;53.224;6.554;2022-07-24T12:06:59;101669.25;;;28.29;41.62
72896;BME280;61036;53.224;6.554;2022-07-24T12:09:25;101661.31;;;27.99;41.21
72896;BME280;61036;53.224;6.554;2022-07-24T12:11:52;101657.72;;;28.06;42.34
72896;BME280;61036;53.224;6.554;2022-07-24T12:14:20;101664.56;;;28.23;42.21
72896;BME280;61036;53.224;6.554;2022-07-24T12:16:55;101648.56;;;28.38;40.04
72896;BME280;61036;53.224;6.554;2022-07-24T12:19:23;101649.00;;;28.42;39.40
72896;BME280;61036;53.224;6.554;2022-07-24T12:21:51;101659.66;;;28.38;40.42
72896;BME280;61036;53.224;6.554;2022-07-24T12:24:19;101656.00;;;28.24;40.63
72896;BME280;61036;53.224;6.554;2022-07-24T12:26:54;101651.94;;;27.94;41.74
72896;BME280;61036;53.224;6.554;2022-07-24T12:29:22;101645.09;;;27.96;41.79
72896;BME280;61036;53.224;6.554;2022-07-24T12:31:52;101641.91;;;27.93;41.81
72896;BME280;61036;53.224;6.554;2022-07-24T12:34:18;101642.78;;;28.20;40.26
72896;BME280;61036;53.224;6.554;2022-07-24T12:36:43;101643.41;;;28.22;39.57
72896;BME280;61036;53.224;6.554;2022-07-24T12:39:12;101639.81;;;28.55;40.13
72896;BME280;61036;53.224;6.554;2022-07-24T12:41:46;101624.66;;;28.64;40.68
72896;BME280;61036;53.224;6.554;2022-07-24T12:44:14;101632.16;;;28.57;38.98
72896;BME280;61036;53.224;6.554;2022-07-24T12:46:42;101625.97;;;28.41;37.86
72896;BME280;61036;53.224;6.554;2022-07-24T12:49:15;101624.63;;;29.04;37.83
72896;BME280;61036;53.224;6.554;2022-07-24T12:51:45;101634.03;;;28.36;38.45
72896;BME280;61036;53.224;6.554;2022-07-24T12:54:29;101633.84;;;28.64;39.11
72896;BME280;61036;53.224;6.554;2022-07-24T12:56:58;101632.13;;;28.70;39.33
72896;BME280;61036;53.224;6.554;2022-07-24T12:59:29;101629.34;;;28.77;40.06
72896;BME280;61036;53.224;6.554;2022-07-24T13:01:57;101630.81;;;28.86;39.28
72896;BME280;61036;53.224;6.554;2022-07-24T13:04:25;101628.94;;;28.20;39.12
72896;BME280;61036;53.224;6.554;2022-07-24T13:06:53;101636.41;;;28.59;40.33
72896;BME280;61036;53.224;6.554;2022-07-24T13:09:20;101633.19;;;28.29;40.12
72896;BME280;61036;53.224;6.554;2022-07-24T13:11:50;101620.59;;;28.33;39.82
72896;BME280;61036;53.224;6.554;2022-07-24T13:14:20;101625.94;;;28.55;40.48
72896;BME280;61036;53.224;6.554;2022-07-24T13:16:47;101618.25;;;28.17;40.28
72896;BME280;61036;53.224;6.554;2022-07-24T13:19:16;101612.69;;;28.37;40.28
72896;BME280;61036;53.224;6.554;2022-07-24T13:21:42;101608.44;;;28.01;40.85
72896;BME280;61036;53.224;6.554;2022-07-24T13:24:11;101612.94;;;28.29;40.87
72896;BME280;61036;53.224;6.554;2022-07-24T13:26:39;101615.72;;;28.48;39.84
72896;BME280;61036;53.224;6.554;2022-07-24T13:29:07;101596.69;;;28.65;40.03
72896;BME280;61036;53.224;6.554;2022-07-24T13:31:33;101602.47;;;28.51;38.33
72896;BME280;61036;53.224;6.554;2022-07-24T13:34:01;101608.25;;;28.56;38.87
72896;BME280;61036;53.224;6.554;2022-07-24T13:36:27;101603.75;;;28.35;39.54
72896;BME280;61036;53.224;6.554;2022-07-24T13:38:53;101601.00;;;28.28;39.48
72896;BME280;61036;53.224;6.554;2022-07-24T13:41:19;101589.69;;;28.16;39.54
72896;BME280;61036;53.224;6.554;2022-07-24T13:43:47;101589.66;;;28.63;40.30
72896;BME280;61036;53.224;6.554;2022-07-24T13:46:13;101585.41;;;28.47;40.24